Time;durP1;ratioP1;P1;durP2;ratioP2;P2;SDS_P1;SDS_P2;PMS_P1;PMS_P2;Temp;Humidity;BMP_temperature;BMP_pressure;BME280_temperature;BME280_humidity;BME280_pressure;Samples;Min_cycle;Max_cycle;Signal;HPM_P1;HPM_P2
2023/10/22 00:02:08;;;;;;;13.35;3.42;;;15.20;96.80;;;;;;5050680;28;20080;-57
2023/10/22 00:04:34;;;;;;;12.57;3.75;;;15.20;96.70;;;;;;5068538;28;20037;-56
2023/10/22 00:06:59;;;;;;;9.52;3.20;;;15.20;96.70;;;;;;5050228;28;20116;-57
2023/10/22 00:09:25;;;;;;;10.00;3.40;;;15.20;96.60;;;;;;5050536;28;20029;-57
2023/10/22 00:11:50;;;;;;;10.55;3.13;;;15.20;96.60;;;;;;5050401;28;20028;-57
2023/10/22 00:14:16;;;;;;;7.53;3.20;;;15.20;96.50;;;;;;5050472;28;20053;-56
2023/10/22 00:16:42;;;;;;;4.82;2.53;;;15.20;96.50;;;;;;5050313;28;20037;-57
2023/10/22 00:19:08;;;;;;;13.32;3.20;;;15.20;96.50;;;;;;5050180;28;20024;-57
2023/10/22 00:21:33;;;;;;;8.07;2.90;;;15.10;96.60;;;;;;5049967;28;20512;-56
2023/10/22 00:23:59;;;;;;;9.00;2.67;;;15.20;96.70;;;;;;5050396;28;20059;-57
2023/10/22 00:26:24;;;;;;;9.18;2.85;;;15.10;96.70;;;;;;5049986;28;20473;-56
2023/10/22 00:28:50;;;;;;;9.65;2.92;;;15.10;96.80;;;;;;5050202;28;20021;-56
2023/10/22 00:31:15;;;;;;;8.25;3.30;;;15.10;96.80;;;;;;5050093;28;20037;-57
2023/10/22 00:33:41;;;;;;;5.55;2.53;;;15.00;96.90;;;;;;5067986;28;20024;-56
2023/10/22 00:36:07;;;;;;;7.43;2.67;;;15.00;96.90;;;;;;5048892;28;20033;-57
2023/10/22 00:38:32;;;;;;;11.50;2.85;;;15.00;96.90;;;;;;5049947;28;20025;-57
2023/10/22 00:40:58;;;;;;;8.52;2.58;;;15.00;96.90;;;;;;5049737;28;20549;-57
2023/10/22 00:43:23;;;;;;;9.88;3.22;;;15.00;96.90;;;;;;5050025;28;20021;-57
2023/10/22 00:45:49;;;;;;;7.43;2.60;;;14.90;96.90;;;;;;5049699;28;20044;-57
2023/10/22 00:48:16;;;;;;;6.57;2.65;;;15.00;97.00;;;;;;5049810;28;20017;-56
2023/10/22 00:50:42;;;;;;;8.90;2.42;;;14.90;96.90;;;;;;5033043;28;20119;-57
2023/10/22 00:53:08;;;;;;;8.20;3.03;;;14.90;96.90;;;;;;5033223;28;20028;-57
2023/10/22 00:55:35;;;;;;;5.07;2.60;;;14.90;96.80;;;;;;5049616;28;20473;-57
2023/10/22 00:58:02;;;;;;;8.57;2.75;;;14.90;96.80;;;;;;5049975;28;20112;-56
2023/10/22 01:00:28;;;;;;;7.55;2.53;;;14.90;96.70;;;;;;5033308;28;20036;-57
2023/10/22 01:02:54;;;;;;;7.55;2.70;;;14.90;96.70;;;;;;5049552;28;20021;-57
2023/10/22 01:05:19;;;;;;;7.55;2.13;;;14.90;96.70;;;;;;5067432;28;20025;-57
2023/10/22 01:07:46;;;;;;;7.13;2.42;;;14.80;96.70;;;;;;5066149;28;20473;-57
2023/10/22 01:10:12;;;;;;;6.38;2.30;;;14.80;96.70;;;;;;5032880;28;20055;-57
2023/10/22 01:12:38;;;;;;;7.13;2.58;;;14.80;96.80;;;;;;5067121;28;20032;-57
2023/10/22 01:15:04;;;;;;;8.75;2.70;;;14.80;96.80;;;;;;5049811;28;20070;-57
2023/10/22 01:17:30;;;;;;;5.85;2.28;;;14.70;96.80;;;;;;5049353;28;20025;-56
2023/10/22 01:19:55;;;;;;;9.82;2.40;;;14.70;96.90;;;;;;5067242;28;20025;-57
2023/10/22 01:22:21;;;;;;;6.43;2.35;;;14.70;96.90;;;;;;5066916;28;20100;-57
2023/10/22 01:24:47;;;;;;;5.10;1.80;;;14.60;96.90;;;;;;5067124;28;20036;-57
2023/10/22 01:27:12;;;;;;;8.40;2.13;;;14.60;96.90;;;;;;5049128;28;20040;-57
2023/10/22 01:29:38;;;;;;;5.22;2.10;;;14.70;96.90;;;;;;5049045;28;20039;-57
2023/10/22 01:32:04;;;;;;;7.07;2.30;;;14.60;96.90;;;;;;5066913;28;20029;-55
2023/10/22 01:34:30;;;;;;;6.05;2.15;;;14.60;96.90;;;;;;5049205;28;20461;-57
2023/10/22 01:36:55;;;;;;;8.45;2.20;;;14.60;96.90;;;;;;5048903;28;20432;-57
2023/10/22 01:39:21;;;;;;;7.60;1.92;;;14.60;97.00;;;;;;5066738;28;20040;-57
2023/10/22 01:41:46;;;;;;;3.72;1.88;;;14.60;97.00;;;;;;5048994;28;20090;-56
2023/10/22 01:44:12;;;;;;;6.63;2.10;;;14.60;97.00;;;;;;5048901;28;20050;-56
2023/10/22 01:46:37;;;;;;;7.13;2.30;;;14.50;97.00;;;;;;5066091;28;20060;-57
2023/10/22 01:49:03;;;;;;;3.20;1.95;;;14.50;97.10;;;;;;5048690;28;20025;-57
2023/10/22 01:51:28;;;;;;;5.88;2.10;;;14.50;97.10;;;;;;5048549;28;20026;-57
2023/10/22 01:53:54;;;;;;;4.90;2.00;;;14.50;97.10;;;;;;5048721;28;20025;-57
2023/10/22 01:56:20;;;;;;;5.60;1.80;;;14.40;97.10;;;;;;5048552;28;20097;-57
2023/10/22 01:58:45;;;;;;;4.80;1.73;;;14.40;97.10;;;;;;5066381;28;20033;-57
2023/10/22 02:01:11;;;;;;;3.70;1.90;;;14.40;97.00;;;;;;5048737;28;20032;-57
2023/10/22 02:03:37;;;;;;;3.00;1.58;;;14.40;97.10;;;;;;5065812;28;20040;-55
2023/10/22 02:06:13;;;;;;;5.30;2.00;;;14.40;97.00;;;;;;5048842;28;20048;-57
2023/10/22 02:08:39;;;;;;;3.88;1.92;;;14.40;97.00;;;;;;5066342;28;20505;-57
2023/10/22 02:11:04;;;;;;;5.65;2.05;;;14.40;96.90;;;;;;5048361;28;20033;-57
2023/10/22 02:13:30;;;;;;;6.68;2.15;;;14.40;96.90;;;;;;5066229;28;20024;-56
2023/10/22 02:15:56;;;;;;;2.72;1.67;;;14.40;96.80;;;;;;5066105;28;20083;-56
2023/10/22 02:18:21;;;;;;;4.68;2.15;;;14.40;96.90;;;;;;5048233;28;20380;-56
2023/10/22 02:21:00;;;;;;;7.20;2.10;;;14.40;96.90;;;;;;5031405;28;20101;-56
2023/10/22 02:23:26;;;;;;;3.85;1.73;;;14.30;96.90;;;;;;5031653;28;20132;-56
2023/10/22 02:25:51;;;;;;;5.97;1.77;;;14.30;97.00;;;;;;5048596;28;20041;-57
2023/10/22 02:28:17;;;;;;;5.47;1.95;;;14.30;97.00;;;;;;5048244;28;20503;-57
2023/10/22 02:30:43;;;;;;;4.32;1.48;;;14.30;97.00;;;;;;5067127;28;20036;-56
2023/10/22 02:33:09;;;;;;;3.95;1.88;;;14.20;96.90;;;;;;5048222;28;20029;-57
2023/10/22 02:35:41;;;;;;;3.58;1.90;;;14.20;97.00;;;;;;5048164;28;20055;-57
2023/10/22 02:38:07;;;;;;;4.15;1.65;;;14.20;96.90;;;;;;5048019;28;20088;-56
2023/10/22 02:40:36;;;;;;;6.35;1.42;;;14.20;97.00;;;;;;5048126;28;20084;-57
2023/10/22 02:43:02;;;;;;;2.20;1.55;;;14.20;97.00;;;;;;5066159;28;20032;-57
2023/10/22 02:45:28;;;;;;;3.70;1.48;;;14.20;97.10;;;;;;5065571;28;20032;-56
2023/10/22 02:47:55;;;;;;;3.35;1.63;;;14.10;97.10;;;;;;5048306;28;20025;-57
2023/10/22 02:50:21;;;;;;;3.28;1.67;;;14.10;97.10;;;;;;5048235;28;20036;-56
2023/10/22 02:52:46;;;;;;;3.42;1.40;;;14.10;97.00;;;;;;5048184;28;20021;-57
2023/10/22 02:55:12;;;;;;;3.22;1.60;;;14.10;97.00;;;;;;5047965;28;20017;-57
2023/10/22 02:57:38;;;;;;;2.92;1.40;;;14.10;96.90;;;;;;5047945;28;20057;-57
2023/10/22 03:00:04;;;;;;;3.78;1.40;;;14.20;97.00;;;;;;5050750;28;20076;-56
2023/10/22 03:02:30;;;;;;;3.28;1.45;;;14.10;96.90;;;;;;5051699;28;20022;-57
2023/10/22 03:04:56;;;;;;;3.22;1.25;;;14.10;97.00;;;;;;5069590;28;20476;-57
2023/10/22 03:07:23;;;;;;;3.42;1.45;;;14.10;97.20;;;;;;5051910;28;20033;-57
2023/10/22 03:09:48;;;;;;;4.05;1.50;;;14.10;97.00;;;;;;5069538;28;20031;-57
2023/10/22 03:12:14;;;;;;;3.40;1.48;;;14.10;97.00;;;;;;5051481;28;20045;-57
2023/10/22 03:14:39;;;;;;;1.52;1.20;;;14.10;97.20;;;;;;5069407;28;20040;-56
2023/10/22 03:17:05;;;;;;;2.28;1.30;;;14.00;97.20;;;;;;5068135;28;20124;-56
2023/10/22 03:19:30;;;;;;;3.55;1.60;;;14.00;97.20;;;;;;5051212;28;20036;-57
2023/10/22 03:21:56;;;;;;;6.50;1.80;;;14.10;97.20;;;;;;5069066;28;20048;-57
2023/10/22 03:24:22;;;;;;;4.72;1.40;;;14.00;97.50;;;;;;5069287;28;20052;-57
2023/10/22 03:26:48;;;;;;;3.03;1.30;;;14.00;97.20;;;;;;5051441;28;20040;-56
2023/10/22 03:29:14;;;;;;;3.83;1.23;;;13.90;97.20;;;;;;5067900;28;20025;-57
2023/10/22 03:31:39;;;;;;;2.55;1.20;;;13.90;97.30;;;;;;5069200;28;20085;-56
2023/10/22 03:34:05;;;;;;;5.25;1.75;;;14.00;97.30;;;;;;5051185;28;20021;-56
2023/10/22 03:36:30;;;;;;;1.98;1.10;;;13.90;97.30;;;;;;5068836;28;20072;-56
2023/10/22 03:38:56;;;;;;;3.33;1.23;;;13.90;97.20;;;;;;5051090;28;20025;-57
2023/10/22 03:41:22;;;;;;;4.82;1.65;;;14.00;97.10;;;;;;5051195;28;20041;-57
2023/10/22 03:43:47;;;;;;;3.03;1.20;;;14.00;97.10;;;;;;5051231;28;20028;-57
2023/10/22 03:46:13;;;;;;;2.50;1.17;;;13.90;97.40;;;;;;5050896;28;20033;-56
2023/10/22 03:48:38;;;;;;;3.75;1.38;;;13.90;97.10;;;;;;5068695;28;20025;-57
2023/10/22 03:51:04;;;;;;;2.78;1.38;;;13.90;97.20;;;;;;5050851;28;20086;-57
2023/10/22 03:53:29;;;;;;;1.75;1.05;;;13.90;97.30;;;;;;5050911;28;20057;-57
2023/10/22 03:55:55;;;;;;;3.25;1.27;;;13.90;97.30;;;;;;5050599;28;20037;-56
2023/10/22 03:58:20;;;;;;;1.98;1.30;;;13.80;97.30;;;;;;5050620;28;20044;-56
2023/10/22 04:00:46;;;;;;;2.10;1.00;;;13.80;97.30;;;;;;5068507;28;20029;-56
2023/10/22 04:03:12;;;;;;;1.77;1.20;;;13.80;97.30;;;;;;5050546;28;20039;-56
2023/10/22 04:05:37;;;;;;;2.80;1.10;;;13.80;97.30;;;;;;5067000;28;20032;-56
2023/10/22 04:08:03;;;;;;;3.90;1.25;;;13.80;97.40;;;;;;5050437;28;20017;-57
2023/10/22 04:10:28;;;;;;;2.35;1.20;;;13.70;97.40;;;;;;5063012;28;20042;-57
2023/10/22 04:12:55;;;;;;;2.10;1.10;;;13.70;97.30;;;;;;5087756;28;20096;-56
2023/10/22 04:15:20;;;;;;;1.50;1.00;;;13.80;97.40;;;;;;5087330;28;20050;-57
2023/10/22 04:17:49;;;;;;;1.38;1.08;;;13.70;97.40;;;;;;5069219;28;20041;-57
2023/10/22 04:20:14;;;;;;;2.17;1.25;;;13.70;97.40;;;;;;5070698;28;20469;-56
2023/10/22 04:22:43;;;;;;;1.98;1.20;;;13.70;97.40;;;;;;5087941;28;20046;-56
2023/10/22 04:25:09;;;;;;;2.83;1.23;;;13.70;97.40;;;;;;5070258;28;20024;-57
2023/10/22 04:27:35;;;;;;;2.95;1.00;;;13.70;97.40;;;;;;5088299;28;20033;-56
2023/10/22 04:30:00;;;;;;;2.30;1.15;;;13.70;97.70;;;;;;5087894;28;20028;-56
2023/10/22 04:32:26;;;;;;;2.35;1.20;;;13.70;97.40;;;;;;5053359;28;20032;-57
2023/10/22 04:34:51;;;;;;;1.70;1.20;;;13.70;97.40;;;;;;5069932;28;20032;-56
2023/10/22 04:37:19;;;;;;;1.85;1.00;;;13.70;97.40;;;;;;5087982;28;20051;-56
2023/10/22 04:39:45;;;;;;;3.95;1.17;;;13.60;97.40;;;;;;5070517;28;20024;-56
2023/10/22 04:42:10;;;;;;;1.38;1.13;;;13.60;97.40;;;;;;5070023;28;20040;-56
2023/10/22 04:44:36;;;;;;;2.28;1.52;;;13.60;97.40;;;;;;5069645;28;20031;-56
2023/10/22 04:47:02;;;;;;;1.58;1.10;;;13.60;97.40;;;;;;5087688;28;20036;-56
2023/10/22 04:49:30;;;;;;;4.45;1.10;;;13.50;97.40;;;;;;5069689;28;20031;-56
2023/10/22 04:51:56;;;;;;;3.15;1.13;;;13.50;97.50;;;;;;5087571;28;20024;-57
2023/10/22 04:54:23;;;;;;;1.33;0.90;;;13.50;97.50;;;;;;5087524;28;20035;-56
2023/10/22 04:56:49;;;;;;;4.47;1.35;;;13.50;97.50;;;;;;5087885;28;20529;-57
2023/10/22 04:59:14;;;;;;;2.53;1.15;;;13.60;97.40;;;;;;5070024;28;20029;-56
2023/10/22 05:01:40;;;;;;;4.03;1.27;;;13.50;97.30;;;;;;5087915;28;20370;-56
2023/10/22 05:04:05;;;;;;;1.90;1.20;;;13.50;97.60;;;;;;5087294;28;20020;-56
2023/10/22 05:06:31;;;;;;;3.20;0.98;;;13.50;97.40;;;;;;5087261;28;20089;-56
2023/10/22 05:08:56;;;;;;;1.85;1.13;;;13.60;97.40;;;;;;5087121;28;20025;-56
2023/10/22 05:11:22;;;;;;;2.50;1.10;;;13.50;97.30;;;;;;5086939;28;20131;-56
2023/10/22 05:13:47;;;;;;;2.72;1.10;;;13.40;97.30;;;;;;5069219;28;20032;-56
2023/10/22 05:16:13;;;;;;;2.05;1.10;;;13.50;97.30;;;;;;5087237;28;20100;-56
2023/10/22 05:18:39;;;;;;;3.33;1.30;;;13.50;97.30;;;;;;5087192;28;20115;-56
2023/10/22 05:21:05;;;;;;;2.15;1.25;;;13.40;97.30;;;;;;5068564;28;20028;-57
2023/10/22 05:23:32;;;;;;;5.35;1.27;;;13.50;97.40;;;;;;5086719;28;20024;-56
2023/10/22 05:26:08;;;;;;;1.85;1.30;;;13.40;97.40;;;;;;5069017;28;20097;-56
2023/10/22 05:28:34;;;;;;;1.77;1.10;;;13.40;97.80;;;;;;5069357;28;20046;-56
2023/10/22 05:30:59;;;;;;;2.17;1.20;;;13.40;97.50;;;;;;5086915;28;20025;-56
2023/10/22 05:33:25;;;;;;;2.72;1.30;;;13.40;97.60;;;;;;5068871;28;20431;-56
2023/10/22 05:35:50;;;;;;;2.42;1.00;;;13.40;97.60;;;;;;5068754;28;20037;-57
2023/10/22 05:38:16;;;;;;;2.10;1.10;;;13.30;97.60;;;;;;5086732;28;20029;-56
2023/10/22 05:40:42;;;;;;;2.80;1.00;;;13.30;97.60;;;;;;5086681;28;20142;-56
2023/10/22 05:43:07;;;;;;;1.80;1.02;;;13.30;97.60;;;;;;5086563;28;20017;-56
2023/10/22 05:45:33;;;;;;;2.10;1.10;;;13.30;97.90;;;;;;5068662;28;20054;-56
2023/10/22 05:47:59;;;;;;;3.10;1.23;;;13.30;97.60;;;;;;5086572;28;20013;-56
2023/10/22 05:50:25;;;;;;;3.97;1.20;;;13.30;97.50;;;;;;5068644;28;20034;-56
2023/10/22 05:52:51;;;;;;;2.25;1.10;;;13.30;97.50;;;;;;5086648;28;20096;-56
2023/10/22 05:55:17;;;;;;;3.40;1.23;;;13.30;97.60;;;;;;5051836;28;20427;-56
2023/10/22 05:57:44;;;;;;;2.65;1.30;;;13.30;97.60;;;;;;5068504;28;20028;-56
2023/10/22 06:00:11;;;;;;;4.70;1.20;;;13.30;97.70;;;;;;5068643;28;20105;-56
2023/10/22 06:02:37;;;;;;;2.70;1.38;;;13.20;97.70;;;;;;5051874;28;20504;-56
2023/10/22 06:05:03;;;;;;;1.60;1.00;;;13.20;97.70;;;;;;5068506;28;20029;-57
2023/10/22 06:07:29;;;;;;;1.75;1.05;;;13.20;97.70;;;;;;5068509;28;20036;-57
2023/10/22 06:09:55;;;;;;;4.47;1.20;;;13.20;97.70;;;;;;5068223;28;20376;-56
2023/10/22 06:12:20;;;;;;;2.50;1.25;;;13.20;97.70;;;;;;5068206;28;20477;-57
2023/10/22 06:14:46;;;;;;;1.73;1.17;;;13.20;97.70;;;;;;5068196;28;20056;-56
2023/10/22 06:17:12;;;;;;;1.60;1.00;;;13.20;97.80;;;;;;5086408;28;20082;-56
2023/10/22 06:19:38;;;;;;;3.05;1.23;;;13.20;97.70;;;;;;5086069;28;20043;-56
2023/10/22 06:22:03;;;;;;;2.20;1.00;;;13.30;97.80;;;;;;5068739;28;20064;-56
2023/10/22 06:24:29;;;;;;;2.22;1.17;;;13.20;97.80;;;;;;5068613;28;20537;-56
2023/10/22 06:26:55;;;;;;;2.38;1.42;;;13.20;97.70;;;;;;5086561;28;20115;-56
2023/10/22 06:29:20;;;;;;;3.75;1.30;;;13.20;97.70;;;;;;5087688;28;20048;-56
2023/10/22 06:31:46;;;;;;;4.57;1.30;;;13.20;97.60;;;;;;5086233;28;20029;-56
2023/10/22 06:34:11;;;;;;;4.03;1.38;;;13.40;97.60;;;;;;5087403;28;20028;-57
2023/10/22 06:36:37;;;;;;;3.55;1.23;;;13.20;97.50;;;;;;5072418;28;20028;-56
2023/10/22 06:39:03;;;;;;;4.60;1.30;;;13.30;97.50;;;;;;5072286;28;20103;-56
2023/10/22 06:41:29;;;;;;;4.05;1.00;;;13.30;97.50;;;;;;5072142;28;20449;-56
2023/10/22 06:43:54;;;;;;;4.18;1.00;;;13.30;97.50;;;;;;5072620;28;20025;-56
2023/10/22 06:46:20;;;;;;;1.27;1.00;;;13.30;97.60;;;;;;5071849;28;20523;-56
2023/10/22 06:48:46;;;;;;;3.05;1.30;;;13.30;97.60;;;;;;5089757;28;20021;-56
2023/10/22 06:51:15;;;;;;;1.80;1.50;;;13.30;97.60;;;;;;5072076;28;20037;-57
2023/10/22 06:53:41;;;;;;;2.00;1.20;;;13.30;97.60;;;;;;5072346;28;20028;-56
2023/10/22 06:56:07;;;;;;;1.83;0.90;;;13.30;97.60;;;;;;5051614;28;20033;-56
2023/10/22 06:58:33;;;;;;;4.40;1.10;;;13.30;97.60;;;;;;5071935;28;20457;-56
2023/10/22 07:01:05;;;;;;;4.30;1.05;;;13.30;97.60;;;;;;5071775;28;20438;-56
2023/10/22 07:03:32;;;;;;;6.90;1.25;;;13.30;97.90;;;;;;5071934;28;20085;-56
2023/10/22 07:05:58;;;;;;;3.17;1.38;;;13.30;97.60;;;;;;5071469;28;20037;-56
2023/10/22 07:08:23;;;;;;;3.13;1.30;;;13.30;97.60;;;;;;5089363;28;20025;-56
2023/10/22 07:10:49;;;;;;;3.85;1.02;;;13.30;97.60;;;;;;5071506;28;20080;-56
2023/10/22 07:13:15;;;;;;;5.07;1.10;;;13.30;97.50;;;;;;5071529;28;20028;-57
2023/10/22 07:15:40;;;;;;;3.35;1.23;;;13.30;97.50;;;;;;5089217;28;20630;-57
2023/10/22 07:18:06;;;;;;;2.03;1.20;;;13.30;97.50;;;;;;5089339;28;20554;-56
2023/10/22 07:20:31;;;;;;;3.58;1.20;;;13.40;97.50;;;;;;5071416;28;20029;-56
2023/10/22 07:22:58;;;;;;;2.08;1.17;;;13.40;97.50;;;;;;5089585;28;20381;-56
2023/10/22 07:25:23;;;;;;;4.78;1.17;;;13.40;97.50;;;;;;5071041;28;20020;-56
2023/10/22 07:27:49;;;;;;;3.00;1.23;;;13.40;97.50;;;;;;5071281;28;20084;-56
2023/10/22 07:30:15;;;;;;;3.35;1.20;;;13.50;97.50;;;;;;5089245;28;20027;-56
2023/10/22 07:32:40;;;;;;;6.38;1.05;;;13.40;97.50;;;;;;5089146;28;20024;-57
2023/10/22 07:35:07;;;;;;;1.17;0.88;;;13.40;97.80;;;;;;5071395;28;20025;-56
2023/10/22 07:37:33;;;;;;;2.67;1.10;;;13.40;97.60;;;;;;5071348;28;20048;-56
2023/10/22 07:39:59;;;;;;;1.73;1.13;;;13.50;97.50;;;;;;5088714;28;20029;-56
2023/10/22 07:42:24;;;;;;;3.47;1.10;;;13.40;97.50;;;;;;5054089;28;20032;-57
2023/10/22 07:44:50;;;;;;;1.70;1.20;;;13.40;97.50;;;;;;5070245;28;20039;-56
2023/10/22 07:47:16;;;;;;;2.13;1.23;;;13.40;97.50;;;;;;5070591;28;20468;-56
2023/10/22 07:49:41;;;;;;;3.85;1.35;;;13.50;97.50;;;;;;5070823;28;20059;-56
2023/10/22 07:52:07;;;;;;;1.27;1.00;;;13.50;97.50;;;;;;5070742;28;20028;-56
2023/10/22 07:54:33;;;;;;;3.05;1.20;;;13.50;97.50;;;;;;5070654;28;20050;-56
2023/10/22 07:56:59;;;;;;;2.38;1.25;;;13.50;97.50;;;;;;5070628;28;20029;-56
2023/10/22 07:59:24;;;;;;;1.92;1.10;;;13.50;97.50;;;;;;5070379;28;20033;-56
2023/10/22 08:01:50;;;;;;;1.70;1.33;;;13.50;97.60;;;;;;5070306;28;20453;-56
2023/10/22 08:04:15;;;;;;;2.35;1.20;;;13.60;97.60;;;;;;5088672;28;20373;-56
2023/10/22 08:06:41;;;;;;;4.20;1.30;;;13.50;97.60;;;;;;5088358;28;20068;-56
2023/10/22 08:09:06;;;;;;;1.58;1.10;;;13.60;97.90;;;;;;5088742;28;20063;-56
2023/10/22 08:11:32;;;;;;;7.20;1.30;;;13.60;97.60;;;;;;5070478;28;20051;-56
2023/10/22 08:13:58;;;;;;;6.40;1.25;;;13.60;97.60;;;;;;5088217;28;20044;-56
2023/10/22 08:16:23;;;;;;;3.20;1.25;;;13.60;97.60;;;;;;5088245;28;20047;-56
2023/10/22 08:18:49;;;;;;;3.40;1.65;;;13.60;97.60;;;;;;5070224;28;20103;-56
2023/10/22 08:21:16;;;;;;;6.70;1.40;;;13.60;97.60;;;;;;5070641;28;20036;-56
2023/10/22 08:23:42;;;;;;;6.93;1.38;;;13.60;97.60;;;;;;5087917;28;20034;-56
2023/10/22 08:26:07;;;;;;;11.13;2.10;;;13.60;97.60;;;;;;5087705;28;20052;-57
2023/10/22 08:28:35;;;;;;;16.27;2.20;;;13.60;97.60;;;;;;5069911;28;20074;-56
2023/10/22 08:31:00;;;;;;;22.17;4.10;;;13.70;97.60;;;;;;5069823;28;20442;-56
2023/10/22 08:33:26;;;;;;;23.83;4.03;;;13.70;97.60;;;;;;5069823;28;20084;-56
2023/10/22 08:35:52;;;;;;;30.45;3.85;;;13.70;97.60;;;;;;5087498;28;20076;-56
2023/10/22 08:38:17;;;;;;;30.30;3.90;;;13.70;97.60;;;;;;5069472;28;20025;-56
2023/10/22 08:40:43;;;;;;;42.88;5.15;;;13.70;97.60;;;;;;5070318;28;20036;-56
2023/10/22 08:43:16;;;;;;;26.67;4.45;;;13.70;97.70;;;;;;5069511;28;20021;-56
2023/10/22 08:45:45;;;;;;;36.13;4.72;;;13.80;97.70;;;;;;5087239;28;20120;-56
2023/10/22 08:48:11;;;;;;;49.28;5.70;;;13.80;97.70;;;;;;5078196;28;20016;-56
2023/10/22 08:50:37;;;;;;;35.17;4.80;;;13.80;97.80;;;;;;5052674;28;20027;-57
2023/10/22 08:53:03;;;;;;;28.20;4.22;;;13.90;97.80;;;;;;5052616;28;20026;-56
2023/10/22 08:55:29;;;;;;;31.77;4.57;;;14.00;97.70;;;;;;5086626;28;20025;-56
2023/10/22 08:57:55;;;;;;;70.05;7.43;;;13.90;97.50;;;;;;5084767;28;20032;-56
2023/10/22 09:00:20;;;;;;;52.78;6.85;;;13.90;97.60;;;;;;5068946;28;20036;-56
2023/10/22 09:02:46;;;;;;;62.05;6.10;;;14.00;97.60;;;;;;5086423;28;20032;-56
2023/10/22 09:05:12;;;;;;;42.10;6.32;;;13.90;97.60;;;;;;5068838;28;20051;-56
2023/10/22 09:07:51;;;;;;;37.38;6.45;;;14.00;97.60;;;;;;5106376;28;20024;-56
2023/10/22 09:10:28;;;;;;;44.00;6.43;;;14.00;97.50;;;;;;5089163;28;20023;-56
2023/10/22 09:12:54;;;;;;;58.78;6.50;;;14.00;97.30;;;;;;5087303;28;20036;-56
2023/10/22 09:15:19;;;;;;;47.00;6.75;;;14.00;97.20;;;;;;5107123;28;20024;-56
2023/10/22 09:17:45;;;;;;;129.65;13.48;;;14.10;97.20;;;;;;5089015;28;20070;-56
2023/10/22 09:20:21;;;;;;;174.50;18.63;;;14.10;97.10;;;;;;5088766;28;20036;-56
2023/10/22 09:22:46;;;;;;;66.25;8.90;;;14.10;97.00;;;;;;5088342;28;20087;-56
2023/10/22 09:25:12;;;;;;;66.82;8.43;;;14.10;96.90;;;;;;5088577;28;20024;-56
2023/10/22 09:27:39;;;;;;;95.18;10.70;;;14.10;96.80;;;;;;5087826;28;20028;-56
2023/10/22 09:30:05;;;;;;;122.88;14.35;;;14.10;96.70;;;;;;5068944;28;20095;-56
2023/10/22 09:32:32;;;;;;;112.05;13.07;;;14.20;96.70;;;;;;5068557;28;20025;-56
2023/10/22 09:35:13;;;;;;;118.68;12.38;;;14.20;96.70;;;;;;5068369;28;20013;-56
2023/10/22 09:37:50;;;;;;;115.93;11.30;;;14.20;96.50;;;;;;5068448;28;20028;-56
2023/10/22 09:40:21;;;;;;;114.47;12.57;;;14.20;96.30;;;;;;5086509;28;20024;-56
2023/10/22 09:42:50;;;;;;;121.55;12.93;;;14.30;96.30;;;;;;5067549;28;20441;-56
2023/10/22 09:45:17;;;;;;;104.15;11.70;;;14.30;96.10;;;;;;5080446;28;20034;-56
2023/10/22 09:47:43;;;;;;;118.30;13.00;;;14.30;96.10;;;;;;5087269;28;20423;-56
2023/10/22 09:50:12;;;;;;;113.43;13.32;;;14.30;96.10;;;;;;5054297;28;20026;-56
2023/10/22 09:52:38;;;;;;;135.07;14.25;;;14.30;96.20;;;;;;5072239;28;20036;-56
2023/10/22 09:55:04;;;;;;;112.93;13.10;;;14.30;96.30;;;;;;5071835;28;20024;-56
2023/10/22 09:57:31;;;;;;;126.85;14.60;;;14.30;96.30;;;;;;5088100;28;20040;-56
2023/10/22 10:00:07;;;;;;;125.57;15.32;;;14.30;96.40;;;;;;5106396;28;20034;-56
2023/10/22 10:02:33;;;;;;;154.90;18.77;;;14.40;96.30;;;;;;5074258;28;20073;-56
2023/10/22 10:04:58;;;;;;;188.85;18.80;;;14.40;96.20;;;;;;5071184;28;20103;-56
2023/10/22 10:07:24;;;;;;;144.18;16.10;;;14.40;96.20;;;;;;5071092;28;20028;-56
2023/10/22 10:09:49;;;;;;;130.27;14.93;;;14.40;96.20;;;;;;5054448;28;20092;-56
2023/10/22 10:12:16;;;;;;;175.40;17.35;;;14.50;96.20;;;;;;5087905;28;20035;-56
2023/10/22 10:14:45;;;;;;;118.97;15.85;;;14.40;96.40;;;;;;5070878;28;20020;-56
2023/10/22 10:17:12;;;;;;;160.90;16.30;;;14.50;96.10;;;;;;5086759;28;20032;-56
2023/10/22 10:19:38;;;;;;;145.82;16.15;;;14.50;96.00;;;;;;5054162;28;20024;-56
2023/10/22 10:22:04;;;;;;;144.70;17.38;;;14.60;96.00;;;;;;5070601;28;20063;-56
2023/10/22 10:24:30;;;;;;;132.68;15.75;;;14.60;96.00;;;;;;5087544;28;20021;-56
2023/10/22 10:26:56;;;;;;;124.28;15.52;;;14.60;95.90;;;;;;5103501;28;20028;-55
2023/10/22 10:29:29;;;;;;;135.52;15.63;;;14.60;95.80;;;;;;5104315;28;20045;-56
2023/10/22 10:32:15;;;;;;;150.57;17.00;;;14.70;95.80;;;;;;5087697;28;20066;-56
2023/10/22 10:34:47;;;;;;;139.73;18.02;;;14.70;95.70;;;;;;5104247;28;20093;-56
2023/10/22 10:37:17;;;;;;;140.70;17.10;;;14.80;95.70;;;;;;5066838;28;20050;-56
2023/10/22 10:39:46;;;;;;;152.95;17.00;;;14.80;95.60;;;;;;5085115;28;20060;-56
2023/10/22 10:42:31;;;;;;;144.30;16.58;;;14.80;95.60;;;;;;5085381;28;20039;-56
2023/10/22 10:45:00;;;;;;;132.88;15.75;;;14.80;95.60;;;;;;5084123;28;20024;-56
2023/10/22 10:47:29;;;;;;;130.38;16.08;;;14.90;95.50;;;;;;5085165;28;20029;-56
2023/10/22 10:50:05;;;;;;;143.02;17.73;;;14.90;95.50;;;;;;5085711;28;20055;-56
2023/10/22 10:52:56;;;;;;;114.38;14.80;;;14.90;95.40;;;;;;5067227;28;20024;-56
2023/10/22 10:55:22;;;;;;;121.28;15.02;;;14.90;95.30;;;;;;5068063;28;20060;-56
2023/10/22 10:57:52;;;;;;;163.85;17.20;;;14.90;95.00;;;;;;5083237;28;20024;-56
2023/10/22 11:00:30;;;;;;;158.07;18.00;;;14.90;94.90;;;;;;5063221;28;20013;-56
2023/10/22 11:02:58;;;;;;;118.82;15.02;;;14.90;95.00;;;;;;5066071;28;20028;-56
2023/10/22 11:05:42;;;;;;;119.53;13.95;;;14.90;94.80;;;;;;5032275;28;20067;-56
2023/10/22 11:08:12;;;;;;;130.80;16.63;;;14.90;94.80;;;;;;5068537;28;20388;-56
2023/10/22 11:10:37;;;;;;;137.23;16.67;;;15.00;94.80;;;;;;5050467;28;20021;-54
2023/10/22 11:13:05;;;;;;;112.50;13.65;;;15.00;94.80;;;;;;5084871;28;20078;-54
2023/10/22 11:15:32;;;;;;;104.47;13.18;;;15.00;94.60;;;;;;5050250;28;20052;-53
2023/10/22 11:18:02;;;;;;;115.00;14.93;;;15.00;94.10;;;;;;5050415;28;20082;-53
2023/10/22 11:20:27;;;;;;;138.52;15.52;;;15.10;93.90;;;;;;5035473;28;20024;-53
2023/10/22 11:22:53;;;;;;;134.25;16.20;;;15.10;94.00;;;;;;5070898;28;20544;-53
2023/10/22 11:25:19;;;;;;;139.18;17.63;;;15.10;93.70;;;;;;5054110;28;20028;-53
2023/10/22 11:27:44;;;;;;;132.27;14.40;;;15.10;93.70;;;;;;5053956;28;20044;-53
2023/10/22 11:30:10;;;;;;;166.10;16.90;;;15.20;93.60;;;;;;5070923;28;20074;-54
2023/10/22 11:32:37;;;;;;;126.10;16.20;;;15.20;93.30;;;;;;5070663;28;20031;-53
2023/10/22 11:35:04;;;;;;;141.23;18.05;;;15.20;93.30;;;;;;5070477;28;20036;-53
2023/10/22 11:37:39;;;;;;;145.60;19.35;;;15.20;93.30;;;;;;5070516;28;20036;-53
2023/10/22 11:40:28;;;;;;;127.07;17.80;;;15.20;93.10;;;;;;5054212;28;20052;-53
2023/10/22 11:42:54;;;;;;;126.30;15.15;;;15.20;93.00;;;;;;5070403;28;20036;-53
2023/10/22 11:45:20;;;;;;;159.35;18.42;;;15.30;92.90;;;;;;5070534;28;20032;-53
2023/10/22 11:47:45;;;;;;;163.45;18.90;;;15.30;92.80;;;;;;5088272;28;20025;-53
2023/10/22 11:50:14;;;;;;;163.40;17.98;;;15.30;92.90;;;;;;5049622;28;20092;-53
2023/10/22 11:52:46;;;;;;;186.95;19.20;;;15.40;92.80;;;;;;5069543;28;20028;-53
2023/10/22 11:55:11;;;;;;;176.15;18.08;;;15.40;92.70;;;;;;5087484;28;20033;-53
2023/10/22 11:57:37;;;;;;;162.80;18.23;;;15.40;92.70;;;;;;5087907;28;20032;-53
2023/10/22 12:00:12;;;;;;;149.90;19.30;;;15.40;92.60;;;;;;5070098;28;20477;-53
2023/10/22 12:02:39;;;;;;;146.88;19.90;;;15.40;92.60;;;;;;5044447;28;20033;-53
2023/10/22 12:05:05;;;;;;;186.18;21.88;;;15.50;92.50;;;;;;5063050;28;20046;-53
2023/10/22 12:07:30;;;;;;;249.05;25.90;;;15.50;92.40;;;;;;5069450;28;20048;-53
2023/10/22 12:09:56;;;;;;;204.55;24.13;;;15.60;92.60;;;;;;5087135;28;20025;-54
2023/10/22 12:12:23;;;;;;;189.68;23.38;;;15.60;92.60;;;;;;5068399;28;20033;-53
2023/10/22 12:14:49;;;;;;;217.93;25.17;;;15.60;92.40;;;;;;5069837;28;20024;-53
2023/10/22 12:17:15;;;;;;;210.80;25.52;;;15.60;92.20;;;;;;5066290;28;20033;-53
2023/10/22 12:19:41;;;;;;;225.50;25.80;;;15.70;92.30;;;;;;5048806;28;20036;-53
2023/10/22 12:22:06;;;;;;;217.02;23.90;;;15.70;92.50;;;;;;5054535;28;20552;-53
2023/10/22 12:24:32;;;;;;;246.40;26.52;;;15.70;92.50;;;;;;5086629;28;20051;-53
2023/10/22 12:26:58;;;;;;;225.70;26.13;;;15.80;92.50;;;;;;5087246;28;20028;-53
2023/10/22 12:29:23;;;;;;;263.20;30.10;;;15.80;92.50;;;;;;5049704;28;20085;-53
2023/10/22 12:31:49;;;;;;;328.80;32.08;;;16.00;92.70;;;;;;5079529;28;20039;-53
2023/10/22 12:34:14;;;;;;;255.82;30.77;;;16.00;92.70;;;;;;5073691;28;20432;-53
2023/10/22 12:36:40;;;;;;;329.52;32.63;;;16.00;92.50;;;;;;5068960;28;20067;-53